Georgetown, Delaware
Current Conditions -  °F | °C
As of 8:54 AM on Monday 26 Jan 2015 (Local Time) from KGED Reporting Station
Overcast Overcast  
Wind Chill: 29°   Ceiling: 1300
Heat Index: 38°   Visibility: 10mi
Dew Point: 34°   Wind: 17mph
Humidity: 86%   Direction: 60°ENE
Pressure: 29.79"   Gusts: 23mph
Location:  38.69°N, 75.39°W
Report Text: KGED 261354Z AUTO 06015G20KT 10SM BKN013 OVC027 03/01 A2979 RMK AO2 RAE39UPB01E15B39E41 SLP088 P0001 T00330011
Loading
Personal Weather Stations






























Interactive Weather Map New forecast layout! Learn more

10-Day Weather Forecast

Advertisements
Track Severe Weather on mobile